createdAt,value
2023-10-28T00:02:55.216Z,9.66
2023-10-28T00:05:56.660Z,9.42
2023-10-28T00:08:58.065Z,9.67
2023-10-28T00:11:59.499Z,9.64
2023-10-28T00:15:00.924Z,9.81
2023-10-28T00:18:04.152Z,9.87
2023-10-28T00:21:08.677Z,9.95
2023-10-28T00:24:11.446Z,9.74
2023-10-28T00:27:13.445Z,9.63
2023-10-28T00:30:14.850Z,9.56
2023-10-28T00:33:16.955Z,9.54
2023-10-28T00:36:18.406Z,9.84
2023-10-28T00:39:19.991Z,9.64
2023-10-28T00:42:21.719Z,9.54
2023-10-28T00:45:23.145Z,9.61
2023-10-28T00:48:24.811Z,9.67
2023-10-28T00:51:26.237Z,9.57
2023-10-28T00:54:27.659Z,9.83
2023-10-28T00:57:29.182Z,9.70
2023-10-28T01:00:30.684Z,9.69
2023-10-28T01:03:32.285Z,9.52
2023-10-28T01:06:33.833Z,9.71
2023-10-28T01:09:45.467Z,9.67
2023-10-28T01:12:48.583Z,9.59
2023-10-28T01:15:50.100Z,9.65
2023-10-28T01:18:57.647Z,9.75
2023-10-28T01:21:59.402Z,9.65
2023-10-28T01:25:00.829Z,9.74
2023-10-28T01:28:03.373Z,9.60
2023-10-28T01:31:05.078Z,9.94
2023-10-28T01:34:06.509Z,9.88
2023-10-28T01:37:08.069Z,9.76
2023-10-28T01:40:16.234Z,9.76
2023-10-28T01:43:18.364Z,9.67
2023-10-28T01:46:19.824Z,9.85
2023-10-28T01:49:21.248Z,9.75
2023-10-28T01:52:22.984Z,9.76
2023-10-28T01:55:24.436Z,9.80
2023-10-28T01:58:26.254Z,9.59
2023-10-28T02:01:27.700Z,9.53
2023-10-28T02:04:29.579Z,9.66
2023-10-28T02:07:31.000Z,9.57
2023-10-28T02:10:34.092Z,9.64
2023-10-28T02:13:36.643Z,9.68
2023-10-28T02:16:38.159Z,9.81
2023-10-28T02:19:40.304Z,9.83
2023-10-28T02:22:42.598Z,10.04
2023-10-28T02:25:44.066Z,9.91
2023-10-28T02:28:45.510Z,9.98
2023-10-28T02:31:47.330Z,9.81
2023-10-28T02:34:48.801Z,9.84
2023-10-28T02:37:50.286Z,10.03
2023-10-28T02:40:51.751Z,9.93
2023-10-28T02:43:53.192Z,9.94
2023-10-28T02:46:54.988Z,10.00
2023-10-28T02:49:56.559Z,10.00
2023-10-28T02:53:01.443Z,9.91
2023-10-28T02:56:06.074Z,9.91
2023-10-28T02:59:07.824Z,10.05
2023-10-28T03:02:10.234Z,9.88
2023-10-28T03:05:11.760Z,9.74
2023-10-28T03:08:14.806Z,9.72
2023-10-28T03:11:16.275Z,9.90
2023-10-28T03:14:17.789Z,9.78
2023-10-28T03:17:19.337Z,9.91
2023-10-28T03:20:22.117Z,9.78
2023-10-28T03:23:23.741Z,9.77
2023-10-28T03:26:25.166Z,9.71
2023-10-28T03:29:26.618Z,9.81
2023-10-28T03:32:28.132Z,9.97
2023-10-28T03:35:29.568Z,9.97
2023-10-28T03:38:31.009Z,9.80
2023-10-28T03:41:33.879Z,9.88
2023-10-28T03:44:35.423Z,9.82
2023-10-28T03:47:36.989Z,9.57
2023-10-28T03:50:38.434Z,9.43
2023-10-28T03:53:39.966Z,9.36
2023-10-28T03:56:41.470Z,9.69
2023-10-28T03:59:43.057Z,9.53
2023-10-28T04:02:44.744Z,9.43
2023-10-28T04:05:46.184Z,9.40
2023-10-28T04:08:47.598Z,9.33
2023-10-28T04:11:49.176Z,9.48
2023-10-28T04:14:50.604Z,9.32
2023-10-28T04:17:52.050Z,9.42
2023-10-28T04:20:53.481Z,9.16
2023-10-28T04:23:54.914Z,9.03
2023-10-28T04:26:56.341Z,9.12
2023-10-28T04:29:57.770Z,9.05
2023-10-28T04:32:59.256Z,9.09
2023-10-28T04:36:00.789Z,8.90
2023-10-28T04:39:03.183Z,8.95
2023-10-28T04:42:06.208Z,9.09
2023-10-28T04:45:08.036Z,9.17
2023-10-28T04:48:12.412Z,9.13
2023-10-28T04:51:14.478Z,9.23
2023-10-28T04:54:15.916Z,9.08
2023-10-28T04:57:17.356Z,9.12
2023-10-28T05:00:20.015Z,9.05
2023-10-28T05:03:21.559Z,9.13
2023-10-28T05:06:23.028Z,9.16
2023-10-28T05:09:24.535Z,9.25
2023-10-28T05:12:25.985Z,9.17
2023-10-28T05:15:27.437Z,8.96
2023-10-28T05:18:28.878Z,9.05
2023-10-28T05:21:30.326Z,9.19
2023-10-28T05:24:31.855Z,9.05
2023-10-28T05:27:33.314Z,9.07
2023-10-28T05:30:34.799Z,8.99
2023-10-28T05:33:36.538Z,9.17
2023-10-28T05:36:37.938Z,9.28
2023-10-28T05:39:42.314Z,9.26
2023-10-28T05:42:43.795Z,9.47
2023-10-28T05:45:45.222Z,9.48
2023-10-28T05:48:46.633Z,9.40
2023-10-28T05:51:48.052Z,9.60
2023-10-28T05:54:49.906Z,9.70
2023-10-28T05:57:51.484Z,9.74
2023-10-28T06:00:53.418Z,9.79
2023-10-28T06:03:54.888Z,9.97
2023-10-28T06:06:57.046Z,9.98
2023-10-28T06:09:58.442Z,9.85
2023-10-28T06:12:59.892Z,9.96
2023-10-28T06:16:01.878Z,9.88
2023-10-28T06:19:03.345Z,9.82
2023-10-28T06:22:04.864Z,9.86
2023-10-28T06:25:06.535Z,9.85
2023-10-28T06:28:09.208Z,9.95
2023-10-28T06:31:10.652Z,9.81
2023-10-28T06:34:15.685Z,9.85
2023-10-28T06:37:17.169Z,9.81
2023-10-28T06:40:18.593Z,9.86
2023-10-28T06:43:20.087Z,9.84
2023-10-28T06:46:21.618Z,9.84
2023-10-28T06:49:23.174Z,9.79
2023-10-28T06:52:26.260Z,9.84
2023-10-28T06:55:30.434Z,9.70
2023-10-28T06:58:32.082Z,9.66
2023-10-28T07:01:35.181Z,9.72
2023-10-28T07:04:36.692Z,9.66
2023-10-28T07:07:38.303Z,9.98
2023-10-28T07:10:39.721Z,9.91
2023-10-28T07:13:41.167Z,9.58
2023-10-28T07:16:42.766Z,9.65
2023-10-28T07:19:44.291Z,9.63
2023-10-28T07:22:45.949Z,9.40
2023-10-28T07:25:47.456Z,9.57
2023-10-28T07:28:48.993Z,9.82
2023-10-28T07:31:50.526Z,9.80
2023-10-28T07:34:52.260Z,9.94
2023-10-28T07:37:53.875Z,9.93
2023-10-28T07:40:55.513Z,10.08
2023-10-28T07:43:57.375Z,10.23
2023-10-28T07:47:00.142Z,10.44
2023-10-28T07:50:01.646Z,10.66
2023-10-28T07:53:03.099Z,10.79
2023-10-28T07:56:04.900Z,11.01
2023-10-28T07:59:08.630Z,11.27
2023-10-28T08:02:11.960Z,11.24
2023-10-28T08:05:13.910Z,11.25
2023-10-28T08:08:15.455Z,11.70
2023-10-28T08:11:20.219Z,11.69
2023-10-28T08:14:22.291Z,11.60
2023-10-28T08:17:24.519Z,11.53
2023-10-28T08:20:28.214Z,11.29
2023-10-28T08:23:32.372Z,11.45
2023-10-28T08:26:33.858Z,11.59
2023-10-28T08:29:35.563Z,11.58
2023-10-28T08:32:39.441Z,11.84
2023-10-28T08:35:41.002Z,11.91
2023-10-28T08:38:42.419Z,11.87
2023-10-28T08:41:43.872Z,12.19
2023-10-28T08:44:45.300Z,12.55
2023-10-28T08:47:46.737Z,13.43
2023-10-28T08:50:50.900Z,13.63
2023-10-28T08:53:56.268Z,13.35
2023-10-28T08:56:57.833Z,13.36
2023-10-28T08:59:59.449Z,14.01
2023-10-28T09:03:01.039Z,14.55
2023-10-28T09:06:02.739Z,14.63
2023-10-28T09:09:08.512Z,15.04
2023-10-28T09:12:10.076Z,14.26
2023-10-28T09:15:12.658Z,14.59
2023-10-28T09:18:14.369Z,14.33
2023-10-28T09:21:16.951Z,15.08
2023-10-28T09:24:18.444Z,14.83
2023-10-28T09:27:20.829Z,15.03
2023-10-28T09:30:22.318Z,15.37
2023-10-28T09:33:24.024Z,14.84
2023-10-28T09:36:25.567Z,15.13
2023-10-28T09:39:26.972Z,15.69
2023-10-28T09:42:28.484Z,15.80
2023-10-28T09:45:29.925Z,15.56
2023-10-28T09:48:31.504Z,15.61
2023-10-28T09:51:32.994Z,15.81
2023-10-28T09:54:37.365Z,15.63
2023-10-28T09:57:39.194Z,16.63
2023-10-28T10:00:40.693Z,16.33
2023-10-28T10:04:01.597Z,15.55
2023-10-28T10:07:03.160Z,14.70
2023-10-28T10:10:14.436Z,14.38
2023-10-28T10:13:18.646Z,14.49
2023-10-28T10:16:24.699Z,14.97
2023-10-28T10:19:29.124Z,14.99
2023-10-28T10:22:30.869Z,14.89
2023-10-28T10:25:42.686Z,14.91
2023-10-28T10:28:50.145Z,14.93
2023-10-28T10:31:52.738Z,14.72
2023-10-28T10:34:54.594Z,14.75
2023-10-28T10:38:02.054Z,14.70
2023-10-28T10:41:03.719Z,14.49
2023-10-28T10:44:34.550Z,14.20
2023-10-28T10:47:36.051Z,14.06
2023-10-28T10:50:38.533Z,13.96
2023-10-28T10:53:46.727Z,13.73
2023-10-28T10:56:49.850Z,13.93
2023-10-28T10:59:51.265Z,13.80
2023-10-28T11:02:54.743Z,13.84
2023-10-28T11:05:56.319Z,13.69
2023-10-28T11:08:58.302Z,13.62
2023-10-28T11:11:59.746Z,13.73
2023-10-28T11:15:01.233Z,13.77
2023-10-28T11:18:02.700Z,13.78
2023-10-28T11:21:04.227Z,13.79
2023-10-28T11:24:05.897Z,13.72
2023-10-28T11:27:08.372Z,13.71
2023-10-28T11:30:10.088Z,13.49
2023-10-28T11:33:11.733Z,13.52
2023-10-28T11:36:13.182Z,13.62
2023-10-28T11:39:15.240Z,13.70
2023-10-28T11:42:17.190Z,13.65
2023-10-28T11:45:18.656Z,13.67
2023-10-28T11:48:20.081Z,13.67
2023-10-28T11:51:21.520Z,13.82
2023-10-28T11:54:23.398Z,13.84
2023-10-28T11:57:25.020Z,13.69
2023-10-28T12:00:27.263Z,13.67
2023-10-28T12:03:28.741Z,13.68
2023-10-28T12:06:34.501Z,14.01
2023-10-28T12:09:38.849Z,14.14
2023-10-28T12:12:40.319Z,14.37
2023-10-28T12:15:41.798Z,14.65
2023-10-28T12:18:43.664Z,14.66
2023-10-28T12:21:45.091Z,14.52
2023-10-28T12:24:46.574Z,14.56
2023-10-28T12:27:48.035Z,14.51
2023-10-28T12:30:49.838Z,14.61
2023-10-28T12:33:51.453Z,14.45
2023-10-28T12:36:52.945Z,14.05
2023-10-28T12:39:54.376Z,14.36
2023-10-28T12:42:55.838Z,14.12
2023-10-28T12:45:57.383Z,13.98
2023-10-28T12:48:59.785Z,13.99
2023-10-28T12:52:02.742Z,13.84
2023-10-28T12:55:04.345Z,13.81
2023-10-28T12:58:05.780Z,13.80
2023-10-28T13:01:07.193Z,13.78
2023-10-28T13:04:08.618Z,13.66
2023-10-28T13:07:10.049Z,13.65
2023-10-28T13:10:12.263Z,13.40
2023-10-28T13:13:13.725Z,13.86
2023-10-28T13:16:15.229Z,13.83
2023-10-28T13:19:16.669Z,13.55
2023-10-28T13:22:18.190Z,13.38
2023-10-28T13:25:20.025Z,13.13
2023-10-28T13:28:21.959Z,13.03
2023-10-28T13:31:24.534Z,12.85
2023-10-28T13:34:26.766Z,12.76
2023-10-28T13:37:28.195Z,12.69
2023-10-28T13:40:29.711Z,12.60
2023-10-28T13:43:31.114Z,12.60
2023-10-28T13:46:33.063Z,12.46
2023-10-28T13:49:36.687Z,12.26
2023-10-28T13:52:39.375Z,12.22
2023-10-28T13:55:40.789Z,12.21
2023-10-28T13:58:42.233Z,11.95
2023-10-28T14:01:43.701Z,12.02
2023-10-28T14:04:45.251Z,11.98
2023-10-28T14:07:46.683Z,11.95
2023-10-28T14:10:48.151Z,12.05
2023-10-28T14:13:49.572Z,11.95
2023-10-28T14:16:51.924Z,11.88
2023-10-28T14:19:54.189Z,11.72
2023-10-28T14:22:55.868Z,11.85
2023-10-28T14:25:57.579Z,11.78
2023-10-28T14:28:59.038Z,11.78
2023-10-28T14:32:01.053Z,11.80
2023-10-28T14:35:04.557Z,11.88
2023-10-28T14:38:06.028Z,11.86
2023-10-28T14:41:07.536Z,11.71
2023-10-28T14:44:10.022Z,11.82
2023-10-28T14:47:11.722Z,11.66
2023-10-28T14:50:14.994Z,11.62
2023-10-28T14:53:16.644Z,11.65
2023-10-28T14:56:18.155Z,11.58
2023-10-28T14:59:20.042Z,11.58
2023-10-28T15:02:21.574Z,11.45
2023-10-28T15:05:24.042Z,11.50
2023-10-28T15:08:27.105Z,11.56
2023-10-28T15:11:29.016Z,11.48
2023-10-28T15:14:30.602Z,11.46
2023-10-28T15:17:32.095Z,11.25
2023-10-28T15:20:34.204Z,11.34
2023-10-28T15:23:35.721Z,11.45
2023-10-28T15:26:37.226Z,11.35
2023-10-28T15:29:38.690Z,11.40
2023-10-28T15:32:40.633Z,11.39
2023-10-28T15:35:42.651Z,11.34
2023-10-28T15:38:44.166Z,11.28
2023-10-28T15:41:45.629Z,11.35
2023-10-28T15:44:48.225Z,11.33
2023-10-28T15:47:49.803Z,11.22
2023-10-28T15:50:52.861Z,11.25
2023-10-28T15:53:56.050Z,11.09
2023-10-28T15:56:57.472Z,11.20
2023-10-28T15:59:59.269Z,11.02
2023-10-28T16:03:00.737Z,11.02
2023-10-28T16:06:02.197Z,11.08
2023-10-28T16:09:03.989Z,10.98
2023-10-28T16:12:06.685Z,10.77
2023-10-28T16:15:10.781Z,10.92
2023-10-28T16:18:12.219Z,10.92
2023-10-28T16:21:13.651Z,10.82
2023-10-28T16:24:15.640Z,10.95
2023-10-28T16:27:17.057Z,11.09
2023-10-28T16:30:18.531Z,11.00
2023-10-28T16:33:20.271Z,11.07
2023-10-28T16:36:21.890Z,10.89
2023-10-28T16:39:23.442Z,10.90
2023-10-28T16:42:24.984Z,10.73
2023-10-28T16:45:27.069Z,10.97
2023-10-28T16:48:29.960Z,10.96
2023-10-28T16:51:31.858Z,10.83
2023-10-28T16:54:33.853Z,10.96
2023-10-28T16:57:35.351Z,10.76
2023-10-28T17:00:38.296Z,10.86
2023-10-28T17:03:40.463Z,10.85
2023-10-28T17:06:42.027Z,10.85
2023-10-28T17:09:43.436Z,10.75
2023-10-28T17:12:44.830Z,10.33
2023-10-28T17:15:46.302Z,10.61
2023-10-28T17:18:47.818Z,10.68
2023-10-28T17:21:49.896Z,10.71
2023-10-28T17:24:51.918Z,10.68
2023-10-28T17:27:55.240Z,10.70
2023-10-28T17:30:56.754Z,10.57
2023-10-28T17:33:58.283Z,10.64
2023-10-28T17:36:59.713Z,10.51
2023-10-28T17:40:01.169Z,10.52
2023-10-28T17:43:02.788Z,10.52
2023-10-28T17:46:04.718Z,10.51
2023-10-28T17:49:06.259Z,10.44
2023-10-28T17:52:09.563Z,10.51
2023-10-28T17:55:10.972Z,10.45
2023-10-28T17:58:12.381Z,10.44
2023-10-28T18:01:14.147Z,10.55
2023-10-28T18:04:15.683Z,10.48
2023-10-28T18:07:17.349Z,10.46
2023-10-28T18:10:18.931Z,10.51
2023-10-28T18:13:20.681Z,10.37
2023-10-28T18:16:22.133Z,10.37
2023-10-28T18:19:24.314Z,10.56
2023-10-28T18:22:25.975Z,10.50
2023-10-28T18:25:27.637Z,10.51
2023-10-28T18:28:30.007Z,10.48
2023-10-28T18:31:33.070Z,10.46
2023-10-28T18:34:34.514Z,10.42
2023-10-28T18:37:35.956Z,10.26
2023-10-28T18:40:39.419Z,10.22
2023-10-28T18:43:40.949Z,10.19
2023-10-28T18:46:42.790Z,10.08
2023-10-28T18:49:44.669Z,10.09
2023-10-28T18:52:46.197Z,10.16
2023-10-28T18:55:47.885Z,10.13
2023-10-28T18:58:51.302Z,9.97
2023-10-28T19:01:52.800Z,9.95
2023-10-28T19:04:54.346Z,9.86
2023-10-28T19:07:55.783Z,9.77
2023-10-28T19:10:58.206Z,9.71
2023-10-28T19:13:59.634Z,9.72
2023-10-28T19:17:01.051Z,9.71
2023-10-28T19:20:02.470Z,9.70
2023-10-28T19:23:03.991Z,9.60
2023-10-28T19:26:05.566Z,9.59
2023-10-28T19:29:07.232Z,9.52
2023-10-28T19:32:08.861Z,9.61
2023-10-28T19:35:13.501Z,9.51
2023-10-28T19:38:15.125Z,9.50
2023-10-28T19:41:16.594Z,9.40
2023-10-28T19:44:18.933Z,9.45
2023-10-28T19:47:20.956Z,9.37
2023-10-28T19:50:22.904Z,9.38
2023-10-28T19:53:24.367Z,9.23
2023-10-28T19:56:25.817Z,9.26
2023-10-28T19:59:27.251Z,9.35
2023-10-28T20:02:28.792Z,9.33
2023-10-28T20:05:30.376Z,9.44
2023-10-28T20:08:31.856Z,9.25
2023-10-28T20:11:33.294Z,9.23
2023-10-28T20:14:34.811Z,9.27
2023-10-28T20:17:39.096Z,9.26
2023-10-28T20:20:41.240Z,9.33
2023-10-28T20:23:42.983Z,9.40
2023-10-28T20:26:44.612Z,9.38
2023-10-28T20:29:46.207Z,9.36
2023-10-28T20:32:47.838Z,9.34
2023-10-28T20:35:52.480Z,9.39
2023-10-28T20:38:55.466Z,9.38
2023-10-28T20:41:56.942Z,9.34
2023-10-28T20:44:58.428Z,9.23
2023-10-28T20:48:00.734Z,9.29
2023-10-28T20:51:02.260Z,9.42
2023-10-28T20:54:03.691Z,9.42
2023-10-28T20:57:05.153Z,9.18
2023-10-28T21:00:07.337Z,9.30
2023-10-28T21:03:08.982Z,9.42
2023-10-28T21:06:10.521Z,9.39
2023-10-28T21:09:11.987Z,9.41
2023-10-28T21:12:13.882Z,9.43
2023-10-28T21:15:15.287Z,9.51
2023-10-28T21:18:17.079Z,9.36
2023-10-28T21:21:18.737Z,9.38
2023-10-28T21:24:20.142Z,9.39
2023-10-28T21:27:21.631Z,9.49
2023-10-28T21:30:23.050Z,9.51
2023-10-28T21:33:24.541Z,9.49
2023-10-28T21:36:25.992Z,9.42
2023-10-28T21:39:27.396Z,9.40
2023-10-28T21:42:28.832Z,9.44
2023-10-28T21:45:30.406Z,9.38
2023-10-28T21:48:31.907Z,9.43
2023-10-28T21:51:33.389Z,9.49
2023-10-28T21:54:34.812Z,9.43
2023-10-28T21:57:36.231Z,9.38
2023-10-28T22:00:40.545Z,9.33
2023-10-28T22:03:42.109Z,9.42
2023-10-28T22:06:43.560Z,9.51
2023-10-28T22:09:44.987Z,9.47
2023-10-28T22:12:47.683Z,9.30
2023-10-28T22:15:49.185Z,9.44
2023-10-28T22:18:50.818Z,9.48
2023-10-28T22:21:52.345Z,9.46
2023-10-28T22:24:54.174Z,9.42
2023-10-28T22:28:07.549Z,9.36
2023-10-28T22:31:13.030Z,9.27
2023-10-28T22:34:14.458Z,9.26
2023-10-28T22:37:15.890Z,9.34
2023-10-28T22:40:17.285Z,9.32
2023-10-28T22:43:18.710Z,9.12
2023-10-28T22:46:20.971Z,9.21
2023-10-28T22:49:22.509Z,9.23
2023-10-28T22:52:23.988Z,9.15
2023-10-28T22:55:25.521Z,9.27
2023-10-28T22:58:26.946Z,9.12
2023-10-28T23:01:28.376Z,9.12
2023-10-28T23:04:29.814Z,9.14
2023-10-28T23:07:31.556Z,9.16
2023-10-28T23:10:33.003Z,9.05
2023-10-28T23:13:34.436Z,9.17
2023-10-28T23:16:35.834Z,9.11
2023-10-28T23:19:37.266Z,9.07
2023-10-28T23:22:38.703Z,9.01
2023-10-28T23:25:40.166Z,9.05
2023-10-28T23:28:41.734Z,8.99
2023-10-28T23:31:43.144Z,9.06
2023-10-28T23:34:44.841Z,9.12
2023-10-28T23:37:46.307Z,9.03
2023-10-28T23:40:47.703Z,9.03
2023-10-28T23:43:49.372Z,8.91
2023-10-28T23:46:50.784Z,8.92
2023-10-28T23:49:52.186Z,8.88
2023-10-28T23:52:53.712Z,8.89
2023-10-28T23:55:55.132Z,8.89
2023-10-28T23:58:56.548Z,8.84
